Quijingue, Brazil
Current Conditions -  °F | °C
As of 6:00 PM on Sunday 21 Dec 2014 (Local Time) from SBUF Reporting Station
Few Clouds Few Clouds  
Wind Chill: 91°   Ceiling: Unl
Heat Index: 92°   Visibility: 6mi
Dew Point: 63°   Wind: 8mph
Humidity: 38%   Direction: 150°SSE
Pressure: 29.85"   Gusts: NA
Location:  10.75°S, 39.21°W
Report Text: SBUF 212100Z 15007KT 9999 FEW020 33/17 Q1011
Loading
Personal Weather Stations






























Interactive Weather Map New forecast layout! Learn more

10-Day Weather Forecast

Advertisements
Track Severe Weather on mobile